Time;durP1;ratioP1;P1;durP2;ratioP2;P2;SDS_P1;SDS_P2;PMS_P1;PMS_P2;Temp;Humidity;BMP_temperature;BMP_pressure;BME280_temperature;BME280_humidity;BME280_pressure;Samples;Min_cycle;Max_cycle;Signal;HPM_P1;HPM_P2
2022/07/08 09:37:53;;;;;;;11.07;6.25;;;20.40;90.60;;;;;;5068981;27;20391;-50
2022/07/08 09:40:20;;;;;;;12.98;7.15;;;20.30;90.50;;;;;;5070751;28;20396;-54
2022/07/08 09:42:50;;;;;;;10.70;6.40;;;20.40;90.60;;;;;;5068832;28;20041;-53
2022/07/08 09:45:17;;;;;;;11.68;5.85;;;20.60;90.40;;;;;;5069697;28;20032;-56
2022/07/08 09:47:44;;;;;;;12.88;5.55;;;20.80;89.60;;;;;;5063265;28;20044;-55
2022/07/08 09:50:10;;;;;;;11.95;5.78;;;20.90;88.40;;;;;;5065433;28;20436;-50
2022/07/08 09:52:37;;;;;;;6.05;4.85;;;21.00;87.90;;;;;;5070564;28;20530;-52
2022/07/08 09:55:08;;;;;;;7.18;5.18;;;21.00;88.40;;;;;;5069174;28;20037;-56
2022/07/08 09:57:35;;;;;;;8.75;5.30;;;21.10;87.90;;;;;;5066683;28;20037;-57
2022/07/08 10:00:02;;;;;;;7.50;5.22;;;21.20;87.50;;;;;;5068005;28;20048;-48
2022/07/08 10:02:38;;;;;;;9.18;5.18;;;21.20;87.30;;;;;;5072445;28;20051;-55
2022/07/08 10:05:05;;;;;;;9.55;5.35;;;21.30;86.50;;;;;;5071993;28;20091;-53
2022/07/08 10:07:31;;;;;;;9.88;5.20;;;21.50;86.30;;;;;;5074052;28;20033;-52
2022/07/08 10:09:58;;;;;;;7.93;4.88;;;21.50;86.30;;;;;;5069301;28;20398;-57
2022/07/08 10:12:25;;;;;;;7.93;5.35;;;21.60;86.10;;;;;;5068750;28;20029;-51
2022/07/08 10:14:52;;;;;;;12.27;4.72;;;21.60;85.70;;;;;;5068266;28;20045;-52
2022/07/08 10:17:18;;;;;;;8.05;4.15;;;21.60;85.40;;;;;;5068792;28;20033;-49
2022/07/08 10:19:45;;;;;;;7.20;4.20;;;21.70;85.40;;;;;;5065956;28;20041;-56
2022/07/08 10:22:12;;;;;;;6.97;3.80;;;21.80;85.50;;;;;;5069215;28;20060;-49
2022/07/08 10:24:39;;;;;;;8.60;3.83;;;22.00;83.70;;;;;;5068592;28;20036;-53
2022/07/08 10:27:05;;;;;;;7.63;3.47;;;22.10;82.80;;;;;;5068316;28;20049;-56
2022/07/08 10:29:33;;;;;;;5.85;3.50;;;22.10;83.20;;;;;;5061816;28;20059;-49
2022/07/08 10:31:59;;;;;;;10.95;4.43;;;22.10;83.10;;;;;;5067256;28;20044;-48
2022/07/08 10:34:26;;;;;;;11.07;4.63;;;22.20;83.00;;;;;;5068455;28;20045;-53
2022/07/08 10:36:53;;;;;;;5.35;4.05;;;22.30;82.30;;;;;;5068952;28;20518;-52
2022/07/08 10:39:20;;;;;;;8.27;4.63;;;22.30;82.40;;;;;;5069428;28;20488;-47
2022/07/08 10:41:47;;;;;;;7.03;4.60;;;22.20;82.90;;;;;;5077624;28;20044;-51
2022/07/08 10:44:13;;;;;;;6.45;4.43;;;22.20;82.70;;;;;;5068965;28;20047;-52
2022/07/08 10:46:40;;;;;;;6.63;4.53;;;22.20;83.10;;;;;;5067583;28;20059;-56
2022/07/08 10:49:07;;;;;;;8.68;4.05;;;22.20;83.10;;;;;;5055770;28;20059;-51
2022/07/08 10:51:35;;;;;;;6.60;4.05;;;22.30;83.10;;;;;;5055796;28;20476;-51
2022/07/08 10:54:08;;;;;;;12.90;5.03;;;22.40;83.30;;;;;;5060657;28;20484;-47
2022/07/08 10:56:34;;;;;;;10.45;5.15;;;22.60;82.70;;;;;;5055659;28;20045;-51
2022/07/08 10:59:01;;;;;;;8.48;5.07;;;22.60;82.60;;;;;;5055399;28;20047;-52
2022/07/08 11:01:28;;;;;;;10.50;5.18;;;22.60;81.80;;;;;;5060878;28;20353;-52
2022/07/08 11:03:55;;;;;;;8.77;4.60;;;22.70;81.90;;;;;;5055467;28;20069;-52
2022/07/08 11:06:22;;;;;;;10.23;5.32;;;22.70;81.90;;;;;;5056208;28;20045;-53
2022/07/08 11:08:48;;;;;;;7.45;4.55;;;22.70;82.00;;;;;;5056287;28;20423;-51
2022/07/08 11:11:15;;;;;;;8.27;4.72;;;22.70;82.20;;;;;;5055426;28;20051;-51
2022/07/08 17:48:45;;;;;;;4.30;2.15;;;31.20;50.00;;;;;;5060971;28;20446;-52
2022/07/08 17:51:12;;;;;;;6.15;3.28;;;30.50;50.90;;;;;;5043132;28;20114;-52
2022/07/08 17:53:38;;;;;;;9.23;4.60;;;30.40;50.80;;;;;;5030769;28;20111;-52
2022/07/08 17:56:05;;;;;;;3.28;1.95;;;30.20;51.80;;;;;;5048055;28;20044;-50
2022/07/08 17:58:32;;;;;;;2.97;1.45;;;29.80;51.20;;;;;;5038210;28;20523;-52
2022/07/08 18:00:59;;;;;;;2.85;1.70;;;29.60;52.80;;;;;;5035710;28;20042;-53
2022/07/08 18:03:26;;;;;;;4.50;1.60;;;29.60;52.00;;;;;;5046723;28;20545;-53
2022/07/08 18:05:53;;;;;;;3.95;2.13;;;29.50;52.30;;;;;;5040778;28;20042;-55
2022/07/08 18:08:20;;;;;;;3.33;1.70;;;29.40;53.00;;;;;;5040259;28;20068;-50
2022/07/08 18:10:46;;;;;;;2.80;1.80;;;29.30;52.50;;;;;;5039229;28;20497;-54
2022/07/08 18:13:13;;;;;;;8.48;5.50;;;29.30;52.90;;;;;;5044090;28;20499;-52
2022/07/08 18:15:40;;;;;;;5.97;4.85;;;29.20;52.90;;;;;;5037330;28;20052;-52
2022/07/08 18:18:07;;;;;;;4.07;3.20;;;29.10;53.30;;;;;;5054104;28;20095;-56
2022/07/08 18:20:34;;;;;;;4.30;2.30;;;28.90;53.20;;;;;;5043543;28;20117;-54
2022/07/08 18:23:01;;;;;;;3.30;2.03;;;28.80;53.20;;;;;;5047056;28;20033;-47
2022/07/08 18:25:27;;;;;;;3.80;2.50;;;28.80;54.00;;;;;;5034631;28;20112;-50
2022/07/08 18:27:54;;;;;;;4.20;2.47;;;28.70;53.90;;;;;;5033210;28;20084;-54
2022/07/08 18:30:21;;;;;;;4.47;2.55;;;28.60;54.00;;;;;;5035368;28;20071;-56
2022/07/08 18:32:48;;;;;;;7.07;3.17;;;28.50;54.40;;;;;;5043180;28;20434;-55
2022/07/08 18:35:15;;;;;;;4.00;2.50;;;28.40;54.60;;;;;;5041572;28;20091;-50
2022/07/08 18:37:41;;;;;;;5.60;2.97;;;28.30;54.10;;;;;;5039000;28;20075;-57
2022/07/08 18:40:09;;;;;;;4.80;2.55;;;28.20;54.40;;;;;;5042779;28;20567;-48
2022/07/08 18:42:35;;;;;;;4.70;3.13;;;28.30;55.10;;;;;;5037274;28;20041;-50
2022/07/08 18:45:06;;;;;;;7.47;3.85;;;28.10;54.40;;;;;;5035970;28;20049;-53
2022/07/08 18:47:33;;;;;;;6.57;2.97;;;28.10;54.70;;;;;;5039755;28;20389;-56
2022/07/08 18:50:00;;;;;;;4.20;2.90;;;27.90;55.10;;;;;;5040146;28;20091;-56
2022/07/08 18:52:27;;;;;;;6.18;2.90;;;27.90;55.30;;;;;;5037644;28;20037;-48
2022/07/08 18:54:53;;;;;;;4.00;3.00;;;27.90;55.40;;;;;;5041245;28;20489;-50
2022/07/08 18:57:20;;;;;;;4.55;3.22;;;27.80;55.20;;;;;;5032525;28;20037;-51
2022/07/08 18:59:48;;;;;;;7.35;3.88;;;27.70;55.50;;;;;;5027564;28;20046;-55
2022/07/08 19:02:15;;;;;;;5.90;3.38;;;27.70;55.80;;;;;;5016391;28;20041;-56
2022/07/08 19:04:42;;;;;;;4.25;2.85;;;27.60;55.60;;;;;;5023537;28;20034;-54
2022/07/08 19:07:09;;;;;;;5.95;3.35;;;27.50;55.40;;;;;;5023233;28;20436;-51
2022/07/08 19:09:36;;;;;;;6.28;3.22;;;27.40;55.70;;;;;;5021405;28;20038;-52
2022/07/08 19:12:03;;;;;;;7.93;3.47;;;27.40;55.60;;;;;;5021712;28;20439;-55
2022/07/08 19:14:29;;;;;;;5.05;3.33;;;27.30;55.90;;;;;;5027536;28;20397;-49
2022/07/08 19:16:56;;;;;;;7.88;3.58;;;27.30;56.00;;;;;;5025709;28;20539;-51
2022/07/08 19:19:23;;;;;;;6.05;2.65;;;27.20;56.00;;;;;;5027485;28;20425;-50
2022/07/08 19:21:50;;;;;;;5.90;3.60;;;27.10;56.00;;;;;;5020612;28;20045;-56
2022/07/08 19:24:17;;;;;;;4.68;3.15;;;27.00;56.00;;;;;;5023582;28;20037;-47
2022/07/08 19:26:43;;;;;;;5.68;2.40;;;27.00;56.20;;;;;;5024870;28;20038;-51
2022/07/08 19:29:11;;;;;;;5.72;2.83;;;26.90;56.40;;;;;;5015860;28;20061;-50
2022/07/08 19:31:38;;;;;;;4.50;2.63;;;26.80;56.20;;;;;;5023088;28;20042;-52
2022/07/08 19:34:05;;;;;;;7.13;2.92;;;26.80;56.30;;;;;;5024033;28;20045;-52
2022/07/08 19:36:31;;;;;;;5.32;3.10;;;26.70;56.40;;;;;;5015836;28;20049;-53
2022/07/08 19:38:58;;;;;;;5.07;2.75;;;26.70;56.50;;;;;;5025030;28;20153;-51
2022/07/08 19:41:25;;;;;;;4.13;2.78;;;26.60;56.90;;;;;;5021381;28;20072;-53
2022/07/08 19:43:53;;;;;;;6.55;3.40;;;26.60;57.20;;;;;;5025646;28;20042;-49
2022/07/08 19:46:20;;;;;;;6.15;3.30;;;26.50;57.40;;;;;;5029850;28;20045;-53
2022/07/08 19:48:47;;;;;;;4.22;3.13;;;26.40;57.60;;;;;;5027606;28;20386;-55
2022/07/08 19:51:14;;;;;;;5.35;2.97;;;26.40;57.90;;;;;;5020370;28;20037;-55
2022/07/08 19:53:40;;;;;;;6.50;3.25;;;26.30;58.10;;;;;;5019362;28;20519;-52
2022/07/08 19:56:07;;;;;;;3.70;2.58;;;26.20;58.40;;;;;;5026745;28;20065;-55
2022/07/08 19:58:36;;;;;;;3.88;2.90;;;26.10;58.70;;;;;;5025762;28;20136;-58
2022/07/08 20:01:03;;;;;;;6.38;2.70;;;26.00;59.10;;;;;;5029601;28;20042;-55
2022/07/08 20:03:30;;;;;;;6.68;2.67;;;25.90;59.50;;;;;;5030421;28;20046;-49
2022/07/08 20:05:57;;;;;;;3.78;2.50;;;25.80;59.70;;;;;;5029845;28;20037;-51
2022/07/08 20:08:24;;;;;;;4.85;2.47;;;25.80;60.00;;;;;;5031424;28;20095;-49
2022/07/08 20:10:50;;;;;;;4.55;2.70;;;25.70;60.30;;;;;;5020469;28;20095;-50
2022/07/08 20:13:17;;;;;;;4.28;2.25;;;25.60;60.50;;;;;;5036534;28;20147;-48
2022/07/08 20:15:44;;;;;;;4.45;2.58;;;25.60;60.70;;;;;;5030416;28;20071;-50
2022/07/08 20:18:10;;;;;;;8.75;2.45;;;25.50;60.90;;;;;;5027618;28;20099;-48
2022/07/08 20:20:37;;;;;;;3.83;2.38;;;25.50;61.20;;;;;;5031275;28;20488;-53
2022/07/08 20:23:04;;;;;;;4.85;2.65;;;25.40;61.30;;;;;;5026676;28;20041;-54
2022/07/08 20:25:31;;;;;;;5.68;2.60;;;25.40;61.50;;;;;;5039005;28;20038;-56
2022/07/08 20:27:58;;;;;;;4.40;2.30;;;25.30;61.80;;;;;;5028853;28;20476;-53
2022/07/08 20:30:24;;;;;;;2.92;2.10;;;25.20;61.60;;;;;;5024612;28;20045;-48
2022/07/08 20:32:51;;;;;;;3.78;1.95;;;25.20;61.60;;;;;;5031999;28;20518;-53
2022/07/08 20:35:18;;;;;;;4.50;2.47;;;25.10;61.80;;;;;;5023970;28;20041;-55
2022/07/08 20:37:45;;;;;;;6.05;2.42;;;25.10;61.80;;;;;;5029579;28;20435;-54
2022/07/08 20:40:11;;;;;;;4.72;2.40;;;25.00;61.70;;;;;;5019439;28;20074;-48
2022/07/08 20:42:44;;;;;;;4.15;2.40;;;24.90;61.70;;;;;;5020659;28;20049;-51
2022/07/08 20:45:11;;;;;;;5.00;2.58;;;24.90;61.80;;;;;;5016129;28;20049;-50
2022/07/08 20:47:38;;;;;;;5.47;2.35;;;24.80;61.80;;;;;;5014532;28;20133;-56
2022/07/08 20:50:04;;;;;;;6.30;2.65;;;24.80;61.90;;;;;;5032906;28;20041;-50
2022/07/08 20:52:33;;;;;;;7.38;2.20;;;24.70;61.90;;;;;;5029391;28;20088;-50
2022/07/08 20:54:59;;;;;;;3.13;2.00;;;24.70;61.90;;;;;;5025901;28;20046;-48
2022/07/08 20:57:26;;;;;;;5.13;2.13;;;24.60;62.00;;;;;;5017251;28;20045;-54
2022/07/08 20:59:53;;;;;;;4.75;2.70;;;24.60;62.00;;;;;;5021141;28;20088;-55
2022/07/08 21:02:20;;;;;;;4.25;2.10;;;24.50;62.20;;;;;;5018415;28;20511;-56
2022/07/08 21:04:46;;;;;;;2.80;2.10;;;24.50;62.30;;;;;;5022346;28;20034;-51
2022/07/08 21:07:13;;;;;;;2.97;1.90;;;24.40;62.40;;;;;;5022932;28;20104;-53
2022/07/08 21:09:40;;;;;;;3.97;2.20;;;24.40;62.50;;;;;;5020170;28;20037;-52
2022/07/08 21:12:07;;;;;;;5.50;2.08;;;24.40;62.60;;;;;;5025350;28;20406;-49
2022/07/08 21:14:33;;;;;;;4.10;2.08;;;24.30;62.90;;;;;;5017477;28;20042;-52
2022/07/08 21:17:00;;;;;;;7.45;2.30;;;24.20;63.00;;;;;;5017379;28;20030;-51
2022/07/08 21:19:27;;;;;;;10.20;2.78;;;24.10;63.30;;;;;;5033152;28;20091;-57
2022/07/08 21:21:54;;;;;;;5.40;2.75;;;24.10;63.80;;;;;;5033396;28;20049;-53
2022/07/08 21:24:21;;;;;;;6.65;2.65;;;24.00;64.20;;;;;;5029268;28;20050;-53
2022/07/08 21:26:47;;;;;;;7.38;2.40;;;24.00;64.50;;;;;;5031986;28;20042;-52
2022/07/08 21:29:14;;;;;;;6.93;2.67;;;23.90;64.60;;;;;;5020190;28;20504;-55
2022/07/08 21:31:41;;;;;;;5.22;2.60;;;23.90;65.10;;;;;;5020376;28;20045;-57
2022/07/08 21:34:08;;;;;;;3.47;2.53;;;23.80;65.40;;;;;;5025336;28;20036;-54
2022/07/08 21:36:34;;;;;;;3.40;2.53;;;23.70;65.60;;;;;;5028606;28;20459;-50
2022/07/08 21:39:01;;;;;;;4.35;2.55;;;23.70;66.10;;;;;;5027811;28;20392;-54
2022/07/08 21:41:28;;;;;;;7.70;2.78;;;23.60;66.10;;;;;;5014113;28;20038;-53
2022/07/08 21:43:55;;;;;;;4.20;2.50;;;23.60;66.50;;;;;;5023648;28;20037;-52
2022/07/08 21:46:24;;;;;;;5.75;2.70;;;23.60;66.60;;;;;;5025837;28;20062;-52
2022/07/08 21:48:54;;;;;;;8.07;2.50;;;23.50;66.70;;;;;;5025826;28;20053;-53
2022/07/08 21:51:21;;;;;;;3.55;2.40;;;23.40;67.00;;;;;;5022551;28;20041;-51
2022/07/08 21:53:48;;;;;;;3.60;2.40;;;23.30;67.40;;;;;;5023871;28;20042;-49
2022/07/08 21:56:14;;;;;;;5.57;1.92;;;23.30;67.70;;;;;;5019488;28;20485;-56
2022/07/08 21:58:48;;;;;;;4.95;1.98;;;23.30;67.90;;;;;;5027516;28;20057;-56
2022/07/08 22:01:19;;;;;;;3.45;2.20;;;23.20;68.30;;;;;;5028659;28;20127;-53
2022/07/08 22:03:46;;;;;;;4.03;2.00;;;23.10;68.10;;;;;;5029477;28;20038;-56
2022/07/08 22:06:13;;;;;;;7.07;2.10;;;23.10;68.60;;;;;;5032785;28;20069;-50
2022/07/08 22:08:40;;;;;;;3.15;2.03;;;23.10;68.90;;;;;;5019744;28;20037;-52
2022/07/08 22:11:06;;;;;;;2.95;2.20;;;23.00;69.00;;;;;;5025199;28;20055;-50
2022/07/08 22:13:33;;;;;;;3.22;1.92;;;22.90;69.00;;;;;;5020509;28;20361;-47
2022/07/08 22:16:00;;;;;;;4.85;2.25;;;22.90;69.40;;;;;;5014742;28;20068;-50
2022/07/08 22:18:27;;;;;;;5.32;2.33;;;22.90;70.30;;;;;;5027058;28;20057;-56
2022/07/08 22:20:54;;;;;;;5.82;2.30;;;22.80;69.90;;;;;;5022518;28;20108;-52
2022/07/08 22:23:21;;;;;;;8.50;2.22;;;22.80;70.00;;;;;;5026329;28;20112;-56
2022/07/08 22:25:48;;;;;;;4.40;2.30;;;22.70;70.10;;;;;;5016083;28;20063;-51
2022/07/08 22:28:14;;;;;;;3.92;2.20;;;22.60;70.40;;;;;;5022969;28;20065;-52
2022/07/08 22:30:41;;;;;;;5.28;1.95;;;22.60;70.60;;;;;;5015347;28;20034;-52
2022/07/08 22:33:08;;;;;;;4.32;2.10;;;22.60;70.80;;;;;;5021254;28;20034;-51
2022/07/08 22:35:35;;;;;;;4.03;2.20;;;22.50;71.10;;;;;;5025815;28;20049;-53
2022/07/08 22:38:02;;;;;;;6.38;2.03;;;22.50;71.20;;;;;;5016628;28;20120;-49
2022/07/08 22:40:29;;;;;;;4.93;2.28;;;22.40;71.30;;;;;;5018098;28;20041;-56
2022/07/08 22:42:55;;;;;;;4.65;2.20;;;22.40;71.50;;;;;;5015606;28;20112;-49
2022/07/08 22:45:22;;;;;;;3.35;2.00;;;22.30;71.90;;;;;;5016726;28;20046;-56
2022/07/08 22:47:49;;;;;;;5.35;2.00;;;22.30;71.90;;;;;;5027334;28;20455;-52
2022/07/08 22:50:16;;;;;;;3.72;1.90;;;22.20;72.10;;;;;;5035550;28;20045;-49
2022/07/08 22:52:43;;;;;;;5.28;1.98;;;22.20;72.30;;;;;;5030059;28;20042;-55
2022/07/08 22:55:09;;;;;;;6.82;1.98;;;22.10;72.50;;;;;;5028088;28;20452;-57
2022/07/08 22:57:36;;;;;;;5.40;2.13;;;22.10;72.70;;;;;;5027169;28;20488;-54
2022/07/08 23:00:03;;;;;;;4.57;1.90;;;22.10;72.90;;;;;;5031149;28;20050;-51
2022/07/08 23:02:30;;;;;;;3.20;1.90;;;22.00;72.80;;;;;;5023133;28;20045;-53
